sensor_id;sensor_type;location;lat;lon;timestamp;pressure;altitude;pressure_sealevel;temperature;humidity
46534;BME280;32260;52.008;4.752;2022-12-28T00:01:41;101529.22;;;7.83;75.07
46534;BME280;32260;52.008;4.752;2022-12-28T00:04:08;101522.19;;;7.86;74.90
46534;BME280;32260;52.008;4.752;2022-12-28T00:06:34;101508.09;;;7.86;75.27
46534;BME280;32260;52.008;4.752;2022-12-28T00:09:01;101495.81;;;7.88;75.24
46534;BME280;32260;52.008;4.752;2022-12-28T00:11:28;101487.88;;;7.85;75.09
46534;BME280;32260;52.008;4.752;2022-12-28T00:13:55;101482.59;;;7.91;75.32
46534;BME280;32260;52.008;4.752;2022-12-28T00:19:04;101485.22;;;7.85;75.49
46534;BME280;32260;52.008;4.752;2022-12-28T00:21:33;101460.63;;;7.89;75.22
46534;BME280;32260;52.008;4.752;2022-12-28T00:24:00;101465.88;;;7.80;75.59
46534;BME280;32260;52.008;4.752;2022-12-28T00:26:28;101449.16;;;7.90;75.15
46534;BME280;32260;52.008;4.752;2022-12-28T00:28:55;101443.03;;;7.92;75.29
46534;BME280;32260;52.008;4.752;2022-12-28T00:31:21;101444.78;;;7.98;74.74
46534;BME280;32260;52.008;4.752;2022-12-28T00:33:47;101437.75;;;7.97;74.82
46534;BME280;32260;52.008;4.752;2022-12-28T00:36:15;101428.06;;;8.02;74.77
46534;BME280;32260;52.008;4.752;2022-12-28T00:38:41;101429.84;;;8.09;74.49
46534;BME280;32260;52.008;4.752;2022-12-28T00:41:08;101422.81;;;8.04;74.58
46534;BME280;32260;52.008;4.752;2022-12-28T00:43:35;101437.75;;;8.00;74.98
46534;BME280;32260;52.008;4.752;2022-12-28T00:46:02;101434.25;;;8.07;74.52
46534;BME280;32260;52.008;4.752;2022-12-28T00:48:28;101428.94;;;8.14;74.52
46534;BME280;32260;52.008;4.752;2022-12-28T00:51:16;101412.22;;;8.19;74.58
46534;BME280;32260;52.008;4.752;2022-12-28T00:53:42;101413.97;;;8.17;74.24
46534;BME280;32260;52.008;4.752;2022-12-28T00:56:11;101388.50;;;8.18;74.66
46534;BME280;32260;52.008;4.752;2022-12-28T00:58:38;101392.88;;;8.17;74.54
46534;BME280;32260;52.008;4.752;2022-12-28T01:01:08;101391.13;;;8.24;74.25
46534;BME280;32260;52.008;4.752;2022-12-28T01:03:36;101392.84;;;8.33;73.85
46534;BME280;32260;52.008;4.752;2022-12-28T01:06:06;101388.47;;;8.30;73.66
46534;BME280;32260;52.008;4.752;2022-12-28T01:08:34;101375.25;;;8.29;74.13
46534;BME280;32260;52.008;4.752;2022-12-28T01:11:06;101361.16;;;8.39;74.05
46534;BME280;32260;52.008;4.752;2022-12-28T01:13:33;101372.59;;;8.39;73.68
46534;BME280;32260;52.008;4.752;2022-12-28T01:15:59;101368.19;;;8.38;73.37
46534;BME280;32260;52.008;4.752;2022-12-28T01:18:25;101359.38;;;8.41;73.66
46534;BME280;32260;52.008;4.752;2022-12-28T01:20:52;101372.59;;;8.42;73.58
46534;BME280;32260;52.008;4.752;2022-12-28T01:23:18;101364.66;;;8.46;73.71
46534;BME280;32260;52.008;4.752;2022-12-28T01:25:44;101361.13;;;8.43;73.03
46534;BME280;32260;52.008;4.752;2022-12-28T01:28:10;101363.78;;;8.53;72.89
46534;BME280;32260;52.008;4.752;2022-12-28T01:30:36;101367.31;;;8.55;72.85
46534;BME280;32260;52.008;4.752;2022-12-28T01:33:02;101352.38;;;8.52;72.66
46534;BME280;32260;52.008;4.752;2022-12-28T01:35:28;101354.13;;;8.55;72.65
46534;BME280;32260;52.008;4.752;2022-12-28T01:37:56;101346.19;;;8.55;73.01
46534;BME280;32260;52.008;4.752;2022-12-28T01:40:22;101340.00;;;8.50;73.46
46534;BME280;32260;52.008;4.752;2022-12-28T01:42:48;101344.41;;;8.45;73.21
46534;BME280;32260;52.008;4.752;2022-12-28T01:45:17;101344.41;;;8.55;72.98
46534;BME280;32260;52.008;4.752;2022-12-28T01:47:45;101332.97;;;8.53;73.19
46534;BME280;32260;52.008;4.752;2022-12-28T01:50:16;101329.44;;;8.54;73.36
46534;BME280;32260;52.008;4.752;2022-12-28T01:52:56;101321.56;;;8.47;73.41
46534;BME280;32260;52.008;4.752;2022-12-28T01:55:28;101318.91;;;8.47;73.66
46534;BME280;32260;52.008;4.752;2022-12-28T01:58:00;101309.22;;;8.49;74.08
46534;BME280;32260;52.008;4.752;2022-12-28T02:00:28;101299.56;;;8.46;74.21
46534;BME280;32260;52.008;4.752;2022-12-28T02:03:13;101292.47;;;8.50;74.26
46534;BME280;32260;52.008;4.752;2022-12-28T02:05:44;101305.72;;;8.47;74.21
46534;BME280;32260;52.008;4.752;2022-12-28T02:11:06;101276.66;;;8.51;73.97
46534;BME280;32260;52.008;4.752;2022-12-28T02:13:33;101269.59;;;8.47;74.56
46534;BME280;32260;52.008;4.752;2022-12-28T02:16:00;101285.44;;;8.55;74.35
46534;BME280;32260;52.008;4.752;2022-12-28T02:18:27;101289.81;;;8.59;73.96
46534;BME280;32260;52.008;4.752;2022-12-28T02:34:25;101249.25;;;8.68;74.39
46534;BME280;32260;52.008;4.752;2022-12-28T02:36:58;101248.34;;;8.72;74.19
46534;BME280;32260;52.008;4.752;2022-12-28T02:39:32;101242.16;;;8.78;73.78
46534;BME280;32260;52.008;4.752;2022-12-28T02:42:03;101238.66;;;8.76;73.92
46534;BME280;32260;52.008;4.752;2022-12-28T02:44:30;101238.66;;;8.76;74.31
46534;BME280;32260;52.008;4.752;2022-12-28T02:47:16;101244.78;;;8.82;73.80
46534;BME280;32260;52.008;4.752;2022-12-28T02:50:04;101226.31;;;8.78;74.33
46534;BME280;32260;52.008;4.752;2022-12-28T02:52:57;101250.94;;;8.80;74.40
46534;BME280;32260;52.008;4.752;2022-12-28T02:55:41;101235.00;;;8.92;74.29
46534;BME280;32260;52.008;4.752;2022-12-28T03:01:29;101225.31;;;8.97;74.37
46534;BME280;32260;52.008;4.752;2022-12-28T03:12:34;101231.34;;;9.12;74.10
46534;BME280;32260;52.008;4.752;2022-12-28T03:15:12;101225.19;;;9.11;74.38
46534;BME280;32260;52.008;4.752;2022-12-28T03:17:42;101225.09;;;9.23;74.11
46534;BME280;32260;52.008;4.752;2022-12-28T03:20:30;101226.00;;;9.22;73.84
46534;BME280;32260;52.008;4.752;2022-12-28T03:23:18;101213.72;;;9.14;74.17
46534;BME280;32260;52.008;4.752;2022-12-28T03:26:08;101214.53;;;9.20;74.35
46534;BME280;32260;52.008;4.752;2022-12-28T03:28:57;101207.44;;;9.27;73.98
46534;BME280;32260;52.008;4.752;2022-12-28T03:31:44;101215.38;;;9.27;74.50
46534;BME280;32260;52.008;4.752;2022-12-28T03:34:11;101217.09;;;9.31;74.34
46534;BME280;32260;52.008;4.752;2022-12-28T03:42:13;101197.72;;;9.29;74.42
46534;BME280;32260;52.008;4.752;2022-12-28T03:45:07;101197.66;;;9.35;74.32
46534;BME280;32260;52.008;4.752;2022-12-28T03:47:35;101187.13;;;9.29;74.70
46534;BME280;32260;52.008;4.752;2022-12-28T03:50:03;101201.25;;;9.28;74.80
46534;BME280;32260;52.008;4.752;2022-12-28T03:52:31;101205.72;;;9.25;74.94
46534;BME280;32260;52.008;4.752;2022-12-28T03:54:58;101203.00;;;9.32;74.91
46534;BME280;32260;52.008;4.752;2022-12-28T03:57:24;101177.44;;;9.31;74.70
46534;BME280;32260;52.008;4.752;2022-12-28T03:59:50;101194.06;;;9.43;74.43
46534;BME280;32260;52.008;4.752;2022-12-28T04:02:16;101179.97;;;9.44;74.52
46534;BME280;32260;52.008;4.752;2022-12-28T04:04:42;101192.38;;;9.38;74.49
46534;BME280;32260;52.008;4.752;2022-12-28T04:07:08;101186.97;;;9.51;74.40
46534;BME280;32260;52.008;4.752;2022-12-28T04:09:34;101192.28;;;9.43;74.77
46534;BME280;32260;52.008;4.752;2022-12-28T04:12:00;101165.75;;;9.54;74.56
46534;BME280;32260;52.008;4.752;2022-12-28T04:14:26;101189.66;;;9.43;75.19
46534;BME280;32260;52.008;4.752;2022-12-28T04:16:53;101171.09;;;9.48;75.03
46534;BME280;32260;52.008;4.752;2022-12-28T04:19:19;101172.81;;;9.53;74.75
46534;BME280;32260;52.008;4.752;2022-12-28T04:21:45;101171.91;;;9.53;74.91
46534;BME280;32260;52.008;4.752;2022-12-28T04:24:11;101164.91;;;9.49;75.38
46534;BME280;32260;52.008;4.752;2022-12-28T04:26:37;101160.50;;;9.48;75.71
46534;BME280;32260;52.008;4.752;2022-12-28T04:29:03;101175.47;;;9.53;75.67
46534;BME280;32260;52.008;4.752;2022-12-28T04:31:30;101162.31;;;9.47;76.02
46534;BME280;32260;52.008;4.752;2022-12-28T04:33:57;101164.03;;;9.50;75.98
46534;BME280;32260;52.008;4.752;2022-12-28T04:36:24;101147.25;;;9.52;75.77
46534;BME280;32260;52.008;4.752;2022-12-28T04:38:50;101153.53;;;9.44;76.54
46534;BME280;32260;52.008;4.752;2022-12-28T04:41:17;101150.84;;;9.45;76.51
46534;BME280;32260;52.008;4.752;2022-12-28T04:43:43;101147.34;;;9.42;76.57
46534;BME280;32260;52.008;4.752;2022-12-28T04:46:12;101148.22;;;9.44;76.58
46534;BME280;32260;52.008;4.752;2022-12-28T04:48:39;101132.31;;;9.47;76.46
46534;BME280;32260;52.008;4.752;2022-12-28T04:51:08;101149.88;;;9.54;76.30
46534;BME280;32260;52.008;4.752;2022-12-28T04:53:37;101136.72;;;9.48;76.63
46534;BME280;32260;52.008;4.752;2022-12-28T04:56:05;101144.63;;;9.51;76.54
46534;BME280;32260;52.008;4.752;2022-12-28T04:58:31;101146.34;;;9.52;76.51
46534;BME280;32260;52.008;4.752;2022-12-28T05:01:06;101138.31;;;9.63;76.52
46534;BME280;32260;52.008;4.752;2022-12-28T05:03:33;101136.59;;;9.59;76.34
46534;BME280;32260;52.008;4.752;2022-12-28T05:06:01;101133.94;;;9.60;76.25
46534;BME280;32260;52.008;4.752;2022-12-28T05:08:29;101137.44;;;9.61;76.25
46534;BME280;32260;52.008;4.752;2022-12-28T05:10:59;101122.50;;;9.60;76.55
46534;BME280;32260;52.008;4.752;2022-12-28T05:13:25;101116.13;;;9.75;76.01
46534;BME280;32260;52.008;4.752;2022-12-28T05:15:52;101113.44;;;9.78;75.98
46534;BME280;32260;52.008;4.752;2022-12-28T05:18:18;101115.25;;;9.74;76.22
46534;BME280;32260;52.008;4.752;2022-12-28T05:20:44;101116.13;;;9.76;76.35
46534;BME280;32260;52.008;4.752;2022-12-28T05:23:10;101113.56;;;9.68;76.89
46534;BME280;32260;52.008;4.752;2022-12-28T05:25:36;101108.19;;;9.76;76.70
46534;BME280;32260;52.008;4.752;2022-12-28T05:28:02;101119.88;;;9.55;77.73
46534;BME280;32260;52.008;4.752;2022-12-28T05:30:28;101133.13;;;9.52;77.93
46534;BME280;32260;52.008;4.752;2022-12-28T05:32:54;101103.94;;;9.61;77.64
46534;BME280;32260;52.008;4.752;2022-12-28T05:35:20;101112.88;;;9.49;78.05
46534;BME280;32260;52.008;4.752;2022-12-28T05:37:46;101109.38;;;9.49;78.06
46534;BME280;32260;52.008;4.752;2022-12-28T05:40:13;101127.81;;;9.55;78.02
46534;BME280;32260;52.008;4.752;2022-12-28T05:42:39;101122.34;;;9.70;77.46
46534;BME280;32260;52.008;4.752;2022-12-28T05:45:05;101108.06;;;9.84;76.80
46534;BME280;32260;52.008;4.752;2022-12-28T05:47:31;101108.09;;;9.82;76.78
46534;BME280;32260;52.008;4.752;2022-12-28T05:49:57;101131.91;;;9.84;76.48
46534;BME280;32260;52.008;4.752;2022-12-28T05:52:23;101111.56;;;9.87;76.54
46534;BME280;32260;52.008;4.752;2022-12-28T05:54:49;101112.50;;;9.82;76.56
46534;BME280;32260;52.008;4.752;2022-12-28T05:57:15;101126.50;;;9.93;76.35
46534;BME280;32260;52.008;4.752;2022-12-28T05:59:41;101106.97;;;10.00;76.14
46534;BME280;32260;52.008;4.752;2022-12-28T06:02:08;101099.03;;;10.02;75.84
46534;BME280;32260;52.008;4.752;2022-12-28T06:04:34;101106.06;;;10.04;75.70
46534;BME280;32260;52.008;4.752;2022-12-28T06:07:00;101094.50;;;10.09;75.76
46534;BME280;32260;52.008;4.752;2022-12-28T06:09:26;101082.13;;;10.12;75.47
46534;BME280;32260;52.008;4.752;2022-12-28T06:11:52;101097.88;;;10.20;75.26
46534;BME280;32260;52.008;4.752;2022-12-28T06:14:18;101095.28;;;10.17;75.46
46534;BME280;32260;52.008;4.752;2022-12-28T06:16:45;101094.47;;;10.12;75.82
46534;BME280;32260;52.008;4.752;2022-12-28T06:19:11;101072.31;;;10.17;75.52
46534;BME280;32260;52.008;4.752;2022-12-28T06:21:40;101083.66;;;10.27;75.39
46534;BME280;32260;52.008;4.752;2022-12-28T06:24:07;101086.44;;;10.19;75.89
46534;BME280;32260;52.008;4.752;2022-12-28T06:26:35;101076.59;;;10.26;75.39
46534;BME280;32260;52.008;4.752;2022-12-28T06:29:01;101092.66;;;10.17;75.95
46534;BME280;32260;52.008;4.752;2022-12-28T06:31:37;101089.06;;;10.19;76.08
46534;BME280;32260;52.008;4.752;2022-12-28T06:34:05;101066.94;;;10.24;75.75
46534;BME280;32260;52.008;4.752;2022-12-28T06:36:35;101102.41;;;10.13;76.29
46534;BME280;32260;52.008;4.752;2022-12-28T06:39:02;101080.38;;;10.10;76.21
46534;BME280;32260;52.008;4.752;2022-12-28T06:41:29;101083.81;;;10.16;75.87
46534;BME280;32260;52.008;4.752;2022-12-28T06:43:56;101083.78;;;10.18;76.25
46534;BME280;32260;52.008;4.752;2022-12-28T06:46:24;101089.16;;;10.12;76.31
46534;BME280;32260;52.008;4.752;2022-12-28T06:48:50;101081.13;;;10.19;76.22
46534;BME280;32260;52.008;4.752;2022-12-28T06:54:06;101081.03;;;10.24;75.74
46534;BME280;32260;52.008;4.752;2022-12-28T06:56:34;101081.00;;;10.27;76.13
46534;BME280;32260;52.008;4.752;2022-12-28T06:59:01;101066.03;;;10.26;76.21
46534;BME280;32260;52.008;4.752;2022-12-28T07:01:29;101080.13;;;10.28;75.77
46534;BME280;32260;52.008;4.752;2022-12-28T07:03:57;101070.31;;;10.36;75.49
46534;BME280;32260;52.008;4.752;2022-12-28T07:06:25;101085.34;;;10.31;75.76
46534;BME280;32260;52.008;4.752;2022-12-28T07:08:58;101064.97;;;10.40;75.52
46534;BME280;32260;52.008;4.752;2022-12-28T07:11:24;101053.50;;;10.38;75.48
46534;BME280;32260;52.008;4.752;2022-12-28T07:13:50;101059.69;;;10.35;75.25
46534;BME280;32260;52.008;4.752;2022-12-28T07:16:20;101060.59;;;10.35;75.62
46534;BME280;32260;52.008;4.752;2022-12-28T07:18:46;101059.72;;;10.33;76.02
46534;BME280;32260;52.008;4.752;2022-12-28T07:21:16;101057.97;;;10.32;75.60
46534;BME280;32260;52.008;4.752;2022-12-28T07:23:42;101072.94;;;10.35;75.45
46534;BME280;32260;52.008;4.752;2022-12-28T07:28:48;101067.56;;;10.43;75.03
46534;BME280;32260;52.008;4.752;2022-12-28T07:31:17;101067.69;;;10.33;75.29
46534;BME280;32260;52.008;4.752;2022-12-28T07:33:44;101074.66;;;10.41;75.35
46534;BME280;32260;52.008;4.752;2022-12-28T07:36:13;101094.13;;;10.35;75.59
46534;BME280;32260;52.008;4.752;2022-12-28T07:38:40;101078.16;;;10.43;75.13
46534;BME280;32260;52.008;4.752;2022-12-28T07:41:10;101079.06;;;10.40;75.44
46534;BME280;32260;52.008;4.752;2022-12-28T07:43:36;101076.47;;;10.39;75.62
46534;BME280;32260;52.008;4.752;2022-12-28T07:46:09;101089.72;;;10.37;75.53
46534;BME280;32260;52.008;4.752;2022-12-28T07:48:35;101079.03;;;10.42;75.69
46534;BME280;32260;52.008;4.752;2022-12-28T07:51:15;101089.72;;;10.37;75.80
46534;BME280;32260;52.008;4.752;2022-12-28T07:53:43;101086.94;;;10.46;75.17
46534;BME280;32260;52.008;4.752;2022-12-28T07:56:11;101075.41;;;10.49;74.92
46534;BME280;32260;52.008;4.752;2022-12-28T07:58:37;101078.22;;;10.40;75.58
46534;BME280;32260;52.008;4.752;2022-12-28T08:01:06;101092.28;;;10.42;75.36
46534;BME280;32260;52.008;4.752;2022-12-28T08:03:33;101070.13;;;10.47;75.05
46534;BME280;32260;52.008;4.752;2022-12-28T08:06:05;101068.38;;;10.46;75.28
46534;BME280;32260;52.008;4.752;2022-12-28T08:08:34;101069.19;;;10.53;74.93
46534;BME280;32260;52.008;4.752;2022-12-28T08:11:04;101064.81;;;10.49;74.89
46534;BME280;32260;52.008;4.752;2022-12-28T08:13:33;101068.44;;;10.43;75.32
46534;BME280;32260;52.008;4.752;2022-12-28T08:15:59;101078.94;;;10.49;75.28
46534;BME280;32260;52.008;4.752;2022-12-28T08:18:26;101072.66;;;10.55;74.95
46534;BME280;32260;52.008;4.752;2022-12-28T08:20:52;101065.56;;;10.57;75.03
46534;BME280;32260;52.008;4.752;2022-12-28T08:23:18;101070.00;;;10.57;74.85
46534;BME280;32260;52.008;4.752;2022-12-28T08:25:44;101072.66;;;10.57;74.95
46534;BME280;32260;52.008;4.752;2022-12-28T08:28:10;101083.31;;;10.52;75.08
46534;BME280;32260;52.008;4.752;2022-12-28T08:30:36;101080.63;;;10.54;74.98
46534;BME280;32260;52.008;4.752;2022-12-28T08:33:03;101067.25;;;10.61;74.86
46534;BME280;32260;52.008;4.752;2022-12-28T08:35:29;101063.69;;;10.65;75.07
46534;BME280;32260;52.008;4.752;2022-12-28T08:37:55;101067.25;;;10.61;74.82
46534;BME280;32260;52.008;4.752;2022-12-28T08:40:22;101068.97;;;10.64;74.84
46534;BME280;32260;52.008;4.752;2022-12-28T08:42:55;101070.66;;;10.70;74.48
46534;BME280;32260;52.008;4.752;2022-12-28T08:45:21;101072.63;;;10.58;75.07
46534;BME280;32260;52.008;4.752;2022-12-28T08:47:48;101061.06;;;10.62;75.17
46534;BME280;32260;52.008;4.752;2022-12-28T08:50:14;101058.47;;;10.59;75.03
46534;BME280;32260;52.008;4.752;2022-12-28T08:52:40;101066.38;;;10.62;74.78
46534;BME280;32260;52.008;4.752;2022-12-28T08:55:06;101051.25;;;10.67;74.54
46534;BME280;32260;52.008;4.752;2022-12-28T08:57:33;101063.69;;;10.64;74.36
46534;BME280;32260;52.008;4.752;2022-12-28T08:59:59;101077.91;;;10.58;74.89
46534;BME280;32260;52.008;4.752;2022-12-28T09:02:25;101045.13;;;10.64;75.05
46534;BME280;32260;52.008;4.752;2022-12-28T09:04:51;101052.91;;;10.75;74.64
46534;BME280;32260;52.008;4.752;2022-12-28T09:07:17;101043.25;;;10.72;74.34
46534;BME280;32260;52.008;4.752;2022-12-28T09:09:43;101038.78;;;10.73;74.84
46534;BME280;32260;52.008;4.752;2022-12-28T09:12:09;101049.47;;;10.70;75.06
46534;BME280;32260;52.008;4.752;2022-12-28T09:14:35;101042.38;;;10.70;75.18
46534;BME280;32260;52.008;4.752;2022-12-28T09:17:01;101035.44;;;10.63;74.97
46534;BME280;32260;52.008;4.752;2022-12-28T09:19:27;101037.28;;;10.59;75.51
46534;BME280;32260;52.008;4.752;2022-12-28T09:21:53;101038.06;;;10.63;75.37
46534;BME280;32260;52.008;4.752;2022-12-28T09:24:21;101035.53;;;10.58;75.43
46534;BME280;32260;52.008;4.752;2022-12-28T09:26:47;101056.72;;;10.58;75.35
46534;BME280;32260;52.008;4.752;2022-12-28T09:29:15;101041.78;;;10.52;75.68
46534;BME280;32260;52.008;4.752;2022-12-28T09:31:42;101039.94;;;10.58;75.58
46534;BME280;32260;52.008;4.752;2022-12-28T09:34:10;101041.69;;;10.59;75.63
46534;BME280;32260;52.008;4.752;2022-12-28T09:36:39;101022.25;;;10.60;75.49
46534;BME280;32260;52.008;4.752;2022-12-28T09:39:08;101028.41;;;10.60;75.21
46534;BME280;32260;52.008;4.752;2022-12-28T09:44:42;101036.94;;;10.78;74.18
46534;BME280;32260;52.008;4.752;2022-12-28T09:53:18;101024.44;;;10.86;73.76
46534;BME280;32260;52.008;4.752;2022-12-28T09:58:39;101025.44;;;10.80;73.54
46534;BME280;32260;52.008;4.752;2022-12-28T10:01:10;101025.25;;;10.90;73.32
46534;BME280;32260;52.008;4.752;2022-12-28T10:03:39;101026.19;;;10.87;73.04
46534;BME280;32260;52.008;4.752;2022-12-28T10:06:12;101025.22;;;10.91;73.20
46534;BME280;32260;52.008;4.752;2022-12-28T10:08:44;101032.31;;;10.91;72.92
46534;BME280;32260;52.008;4.752;2022-12-28T10:11:19;101056.13;;;10.92;72.64
46534;BME280;32260;52.008;4.752;2022-12-28T10:13:45;101025.19;;;10.94;72.55
46534;BME280;32260;52.008;4.752;2022-12-28T10:16:17;101022.53;;;10.94;72.96
46534;BME280;32260;52.008;4.752;2022-12-28T10:18:45;101036.69;;;10.93;73.04
46534;BME280;32260;52.008;4.752;2022-12-28T10:21:11;101019.75;;;10.99;72.76
46534;BME280;32260;52.008;4.752;2022-12-28T10:23:38;101023.34;;;10.98;73.06
46534;BME280;32260;52.008;4.752;2022-12-28T10:26:06;101023.53;;;10.87;73.69
46534;BME280;32260;52.008;4.752;2022-12-28T10:28:51;101020.69;;;10.96;73.87
46534;BME280;32260;52.008;4.752;2022-12-28T10:31:32;101023.53;;;10.87;74.61
46534;BME280;32260;52.008;4.752;2022-12-28T10:33:59;101030.66;;;10.83;74.96
46534;BME280;32260;52.008;4.752;2022-12-28T10:36:25;101034.28;;;10.79;75.20
46534;BME280;32260;52.008;4.752;2022-12-28T10:38:55;101031.75;;;10.73;75.62
46534;BME280;32260;52.008;4.752;2022-12-28T10:41:32;101029.28;;;10.62;76.25
46534;BME280;32260;52.008;4.752;2022-12-28T10:43:58;101021.44;;;10.56;76.58
46534;BME280;32260;52.008;4.752;2022-12-28T10:46:25;101014.34;;;10.58;77.00
46534;BME280;32260;52.008;4.752;2022-12-28T10:48:53;101019.63;;;10.58;76.86
46534;BME280;32260;52.008;4.752;2022-12-28T10:51:21;101017.09;;;10.52;77.32
46534;BME280;32260;52.008;4.752;2022-12-28T10:53:52;101026.81;;;10.50;77.90
46534;BME280;32260;52.008;4.752;2022-12-28T10:56:29;101004.63;;;10.57;77.30
46534;BME280;32260;52.008;4.752;2022-12-28T11:01:47;100994.25;;;10.45;77.63
46534;BME280;32260;52.008;4.752;2022-12-28T11:04:22;100992.41;;;10.48;77.54
46534;BME280;32260;52.008;4.752;2022-12-28T11:09:29;100980.91;;;10.51;77.43
46534;BME280;32260;52.008;4.752;2022-12-28T11:12:27;100988.19;;;10.38;78.03
46534;BME280;32260;52.008;4.752;2022-12-28T11:14:42;100972.16;;;10.46;78.19
46534;BME280;32260;52.008;4.752;2022-12-28T11:20:07;100974.13;;;10.31;79.24
46534;BME280;32260;52.008;4.752;2022-12-28T11:22:34;100964.38;;;10.33;78.67
46534;BME280;32260;52.008;4.752;2022-12-28T11:25:01;100974.09;;;10.33;79.17
46534;BME280;32260;52.008;4.752;2022-12-28T11:27:28;100959.06;;;10.38;78.45
46534;BME280;32260;52.008;4.752;2022-12-28T11:29:54;100956.53;;;10.27;78.88
46534;BME280;32260;52.008;4.752;2022-12-28T11:32:24;100960.91;;;10.30;78.73
46534;BME280;32260;52.008;4.752;2022-12-28T11:34:53;100971.59;;;10.24;79.38
46534;BME280;32260;52.008;4.752;2022-12-28T11:37:20;100966.28;;;10.25;79.34
46534;BME280;32260;52.008;4.752;2022-12-28T11:39:49;100967.16;;;10.24;79.27
46534;BME280;32260;52.008;4.752;2022-12-28T11:47:46;100945.97;;;10.27;78.76
46534;BME280;32260;52.008;4.752;2022-12-28T11:53:47;100950.34;;;10.28;79.05
46534;BME280;32260;52.008;4.752;2022-12-28T11:56:10;100946.78;;;10.31;78.56
46534;BME280;32260;52.008;4.752;2022-12-28T12:04:17;100941.50;;;10.29;78.94
46534;BME280;32260;52.008;4.752;2022-12-28T12:11:59;100912.38;;;10.29;78.68
46534;BME280;32260;52.008;4.752;2022-12-28T12:14:45;100915.81;;;10.34;78.88
46534;BME280;32260;52.008;4.752;2022-12-28T12:17:16;100906.09;;;10.38;78.52
46534;BME280;32260;52.008;4.752;2022-12-28T12:19:51;100894.63;;;10.34;78.91
46534;BME280;32260;52.008;4.752;2022-12-28T12:22:27;100903.44;;;10.38;78.87
46534;BME280;32260;52.008;4.752;2022-12-28T12:27:47;100888.44;;;10.37;78.83
46534;BME280;32260;52.008;4.752;2022-12-28T12:30:16;100884.91;;;10.38;78.75
46534;BME280;32260;52.008;4.752;2022-12-28T12:35:23;100873.38;;;10.41;78.31
46534;BME280;32260;52.008;4.752;2022-12-28T12:40:52;100877.63;;;10.49;78.13
46534;BME280;32260;52.008;4.752;2022-12-28T12:43:31;100858.16;;;10.50;78.26
46534;BME280;32260;52.008;4.752;2022-12-28T12:57:20;100822.75;;;10.55;77.82
46534;BME280;32260;52.008;4.752;2022-12-28T13:00:11;100818.31;;;10.55;77.92
46534;BME280;32260;52.008;4.752;2022-12-28T13:02:55;100811.16;;;10.60;77.62
46534;BME280;32260;52.008;4.752;2022-12-28T13:05:29;100814.84;;;10.53;77.91
46534;BME280;32260;52.008;4.752;2022-12-28T13:07:57;100807.72;;;10.55;77.25
46534;BME280;32260;52.008;4.752;2022-12-28T13:10:29;100788.31;;;10.55;77.56
46534;BME280;32260;52.008;4.752;2022-12-28T13:12:58;100772.34;;;10.59;77.33
46534;BME280;32260;52.008;4.752;2022-12-28T13:15:25;100769.59;;;10.62;77.12
46534;BME280;32260;52.008;4.752;2022-12-28T13:18:15;100766.81;;;10.68;76.90
46534;BME280;32260;52.008;4.752;2022-12-28T13:20:53;100769.38;;;10.73;77.03
46534;BME280;32260;52.008;4.752;2022-12-28T13:23:21;100741.19;;;10.71;76.73
46534;BME280;32260;52.008;4.752;2022-12-28T13:25:50;100750.78;;;10.75;76.78
46534;BME280;32260;52.008;4.752;2022-12-28T13:28:21;100734.81;;;10.78;75.81
46534;BME280;32260;52.008;4.752;2022-12-28T13:30:57;100734.81;;;10.78;76.03
46534;BME280;32260;52.008;4.752;2022-12-28T13:33:25;100724.91;;;10.86;75.65
46534;BME280;32260;52.008;4.752;2022-12-28T13:36:04;100716.78;;;10.94;75.53
46534;BME280;32260;52.008;4.752;2022-12-28T13:38:35;100713.19;;;10.96;75.87
46534;BME280;32260;52.008;4.752;2022-12-28T13:41:02;100711.38;;;10.98;75.73
46534;BME280;32260;52.008;4.752;2022-12-28T13:43:50;100703.22;;;11.06;74.78
46534;BME280;32260;52.008;4.752;2022-12-28T13:46:20;100693.50;;;11.07;74.64
46534;BME280;32260;52.008;4.752;2022-12-28T13:48:50;100678.34;;;11.12;74.46
46534;BME280;32260;52.008;4.752;2022-12-28T13:51:19;100679.16;;;11.14;74.18
46534;BME280;32260;52.008;4.752;2022-12-28T13:53:53;100666.69;;;11.19;74.01
46534;BME280;32260;52.008;4.752;2022-12-28T13:56:22;100666.75;;;11.16;73.69
46534;BME280;32260;52.008;4.752;2022-12-28T13:58:51;100657.03;;;11.16;73.40
46534;BME280;32260;52.008;4.752;2022-12-28T14:01:25;100649.81;;;11.22;73.25
46534;BME280;32260;52.008;4.752;2022-12-28T14:03:59;100641.72;;;11.26;73.62
46534;BME280;32260;52.008;4.752;2022-12-28T14:06:26;100633.88;;;11.23;73.20
46534;BME280;32260;52.008;4.752;2022-12-28T14:08:52;100634.88;;;11.19;72.62
46534;BME280;32260;52.008;4.752;2022-12-28T14:11:19;100625.22;;;11.16;72.58
46534;BME280;32260;52.008;4.752;2022-12-28T14:13:46;100635.84;;;11.15;72.60
46534;BME280;32260;52.008;4.752;2022-12-28T14:16:12;100623.41;;;11.17;72.86
46534;BME280;32260;52.008;4.752;2022-12-28T14:18:39;100622.41;;;11.21;72.84
46534;BME280;32260;52.008;4.752;2022-12-28T14:21:06;100610.06;;;11.20;72.95
46534;BME280;32260;52.008;4.752;2022-12-28T14:23:35;100610.16;;;11.17;72.33
46534;BME280;32260;52.008;4.752;2022-12-28T14:26:04;100602.09;;;11.20;72.37
46534;BME280;32260;52.008;4.752;2022-12-28T14:31:10;100603.78;;;11.24;72.65
46534;BME280;32260;52.008;4.752;2022-12-28T14:36:29;100575.81;;;11.12;72.54
46534;BME280;32260;52.008;4.752;2022-12-28T14:38:58;100577.56;;;11.13;72.54
46534;BME280;32260;52.008;4.752;2022-12-28T14:41:33;100560.06;;;11.06;71.78
46534;BME280;32260;52.008;4.752;2022-12-28T14:44:05;100566.09;;;11.13;72.31
46534;BME280;32260;52.008;4.752;2022-12-28T14:46:39;100570.75;;;11.03;71.88
46534;BME280;32260;52.008;4.752;2022-12-28T15:00:01;100555.97;;;10.94;72.21
46534;BME280;32260;52.008;4.752;2022-12-28T15:05:33;100532.59;;;11.09;72.25
46534;BME280;32260;52.008;4.752;2022-12-28T15:08:00;100526.81;;;10.94;71.84